Time;durP1;ratioP1;P1;durP2;ratioP2;P2;SDS_P1;SDS_P2;PMS_P1;PMS_P2;Temp;Humidity;BMP_temperature;BMP_pressure;BME280_temperature;BME280_humidity;BME280_pressure;Samples;Min_cycle;Max_cycle;Signal;HPM_P1;HPM_P2
2021/12/19 00:01:35;;;;;;;3.20;1.70;;;8.50;99.90;;;;;;5127980;27;20047;-63
2021/12/19 00:09:30;;;;;;;2.78;1.80;;;8.50;99.90;;;;;;5064416;28;20075;-64
2021/12/19 00:11:57;;;;;;;2.25;1.70;;;8.50;99.90;;;;;;5065127;28;20071;-63
2021/12/19 00:14:23;;;;;;;2.83;1.63;;;8.50;99.90;;;;;;5094566;27;20055;-63
2021/12/19 00:16:50;;;;;;;4.32;1.80;;;8.50;99.90;;;;;;5130397;27;20039;-63
2021/12/19 00:19:16;;;;;;;6.47;2.10;;;8.50;99.90;;;;;;5138298;27;20042;-63
2021/12/19 00:21:44;;;;;;;11.85;2.63;;;8.50;99.90;;;;;;5129424;27;20047;-63
2021/12/19 00:24:10;;;;;;;3.03;2.10;;;8.50;99.90;;;;;;5133004;27;20055;-63
2021/12/19 00:26:36;;;;;;;4.93;2.25;;;8.50;99.90;;;;;;5132004;27;20043;-63
2021/12/19 00:29:03;;;;;;;2.45;1.77;;;8.40;99.90;;;;;;5104321;28;20544;-63
2021/12/19 00:31:30;;;;;;;3.50;1.70;;;8.40;99.90;;;;;;5133995;27;20130;-63
2021/12/19 00:33:56;;;;;;;5.30;2.30;;;8.40;99.90;;;;;;5128117;27;20082;-63
2021/12/19 00:36:21;;;;;;;6.80;1.73;;;8.40;99.90;;;;;;5127408;27;20082;-64
2021/12/19 00:38:48;;;;;;;2.75;1.67;;;8.40;99.90;;;;;;5123674;27;20485;-63
2021/12/19 00:41:13;;;;;;;2.38;1.90;;;8.40;99.90;;;;;;5129013;27;20109;-63
2021/12/19 00:46:09;;;;;;;3.25;2.25;;;8.40;99.90;;;;;;5113017;27;20062;-63
2021/12/19 00:48:43;;;;;;;3.28;1.73;;;8.40;99.90;;;;;;5138767;27;20070;-63
2021/12/19 00:51:13;;;;;;;3.58;1.80;;;8.40;99.90;;;;;;5109427;28;20125;-63
2021/12/19 00:53:39;;;;;;;2.80;2.15;;;8.40;99.90;;;;;;5125044;27;20521;-63
2021/12/19 00:56:05;;;;;;;5.72;2.65;;;8.40;99.90;;;;;;5127609;27;20058;-63
2021/12/19 00:58:31;;;;;;;4.32;1.92;;;8.40;99.90;;;;;;5126725;27;20043;-63
2021/12/19 01:00:56;;;;;;;4.43;1.45;;;8.40;99.90;;;;;;5127402;27;20451;-63
2021/12/19 01:03:22;;;;;;;1.92;1.73;;;8.40;99.90;;;;;;5136757;27;20039;-63
2021/12/19 01:05:48;;;;;;;6.53;2.22;;;8.40;99.90;;;;;;5124296;28;20148;-63
2021/12/19 01:08:14;;;;;;;4.97;2.42;;;8.40;99.90;;;;;;5137921;27;20035;-63
2021/12/19 01:10:45;;;;;;;2.72;1.63;;;8.40;99.90;;;;;;5128849;28;20043;-63
2021/12/19 01:13:12;;;;;;;2.67;1.70;;;8.30;99.90;;;;;;5132198;27;20054;-63
2021/12/19 01:15:38;;;;;;;4.20;1.77;;;8.40;99.90;;;;;;5146391;27;20062;-63
2021/12/19 01:18:04;;;;;;;1.40;1.30;;;8.40;99.90;;;;;;5114308;27;20490;-63
2021/12/19 01:20:35;;;;;;;1.75;1.20;;;8.40;99.90;;;;;;5129138;27;20035;-63
2021/12/19 01:23:00;;;;;;;4.50;1.10;;;8.30;99.90;;;;;;5135050;27;20050;-63
2021/12/19 01:25:27;;;;;;;1.27;0.93;;;8.30;99.90;;;;;;5114114;27;20398;-64
2021/12/19 01:27:53;;;;;;;2.17;1.33;;;8.40;99.90;;;;;;5131748;27;20126;-63
2021/12/19 01:30:18;;;;;;;5.50;0.98;;;8.40;99.90;;;;;;5106703;27;20387;-64
2021/12/19 01:32:45;;;;;;;5.18;1.30;;;8.40;99.90;;;;;;5139679;27;20080;-63
2021/12/19 01:35:12;;;;;;;2.72;1.40;;;8.40;99.90;;;;;;5112113;27;20130;-63
2021/12/19 01:37:38;;;;;;;1.95;1.40;;;8.40;99.90;;;;;;5123878;27;20043;-63
2021/12/19 01:40:05;;;;;;;2.22;0.90;;;8.40;99.90;;;;;;5132344;27;20039;-63
2021/12/19 01:42:34;;;;;;;1.23;0.70;;;8.30;99.90;;;;;;5142187;27;20110;-63
2021/12/19 01:45:01;;;;;;;3.30;0.63;;;8.30;99.90;;;;;;5115397;27;20142;-63
2021/12/19 01:47:27;;;;;;;2.60;0.80;;;8.30;99.90;;;;;;5120516;27;20043;-63
2021/12/19 01:49:53;;;;;;;2.85;0.63;;;8.30;99.90;;;;;;5131552;27;20379;-63
2021/12/19 01:52:19;;;;;;;1.42;0.70;;;8.30;99.90;;;;;;5132385;27;20035;-63
2021/12/19 01:54:45;;;;;;;1.10;0.65;;;8.30;99.90;;;;;;5123909;27;20122;-63
2021/12/19 01:57:11;;;;;;;1.17;0.57;;;8.30;99.90;;;;;;5116081;27;20130;-63
2021/12/19 01:59:37;;;;;;;2.15;1.10;;;8.30;99.90;;;;;;5129014;27;20177;-63
2021/12/19 02:02:03;;;;;;;1.73;1.02;;;8.30;99.90;;;;;;5103113;27;20039;-63
2021/12/19 02:04:30;;;;;;;2.60;1.13;;;8.20;99.90;;;;;;5128493;27;20035;-63
2021/12/19 02:06:58;;;;;;;2.17;1.13;;;8.30;99.90;;;;;;5129590;27;20165;-63
2021/12/19 02:09:24;;;;;;;3.65;1.55;;;8.20;99.90;;;;;;5129922;27;20505;-63
2021/12/19 02:11:51;;;;;;;5.53;1.10;;;8.20;99.90;;;;;;5113322;27;20122;-63
2021/12/19 02:14:17;;;;;;;2.92;0.93;;;8.20;99.90;;;;;;5112734;27;20075;-63
2021/12/19 02:16:43;;;;;;;1.25;0.50;;;8.20;99.90;;;;;;5130965;27;20389;-64
2021/12/19 02:19:10;;;;;;;2.55;1.00;;;8.20;99.90;;;;;;5111919;27;20126;-63
2021/12/19 02:21:36;;;;;;;1.55;0.80;;;8.20;99.90;;;;;;5108853;27;20039;-63
2021/12/19 02:24:05;;;;;;;4.03;1.10;;;8.20;99.90;;;;;;5136719;27;20050;-63
2021/12/19 02:26:31;;;;;;;2.42;1.20;;;8.20;99.90;;;;;;5133437;27;20075;-63
2021/12/19 02:28:57;;;;;;;4.35;1.40;;;8.20;99.90;;;;;;5123765;27;20047;-63
2021/12/19 02:31:23;;;;;;;3.92;1.60;;;8.20;99.90;;;;;;5133860;27;20046;-63
2021/12/19 02:34:07;;;;;;;1.70;1.10;;;8.10;99.90;;;;;;5128554;27;20043;-63
2021/12/19 02:50:05;;;;;;;1.85;0.88;;;8.00;99.90;;;;;;5111185;27;20129;-63
2021/12/19 02:52:30;;;;;;;3.70;0.82;;;8.00;99.90;;;;;;5129171;27;20051;-63
2021/12/19 02:54:56;;;;;;;1.17;0.50;;;8.00;99.90;;;;;;5120440;27;20405;-63
2021/12/19 02:57:22;;;;;;;1.90;0.80;;;7.90;99.90;;;;;;5109721;27;20509;-63
2021/12/19 02:59:48;;;;;;;3.20;0.57;;;7.90;99.90;;;;;;5131276;27;20050;-63
2021/12/19 03:02:13;;;;;;;1.48;0.95;;;8.00;99.90;;;;;;5112368;27;20490;-63
2021/12/19 03:04:57;;;;;;;1.52;0.65;;;8.00;99.90;;;;;;5123141;27;20081;-63
2021/12/19 03:07:24;;;;;;;;;;;8.00;99.90;;;;;;5141106;27;20046;-63
2021/12/19 03:10:38;;;;;;;3.85;0.90;;;8.00;99.90;;;;;;5131814;27;20048;-63
2021/12/19 03:18:30;;;;;;;7.28;0.90;;;7.90;99.90;;;;;;5128585;27;20111;-63
2021/12/19 03:20:56;;;;;;;2.25;0.52;;;7.90;99.90;;;;;;5129433;27;20043;-63
2021/12/19 03:23:22;;;;;;;2.83;0.50;;;7.90;99.90;;;;;;5118045;27;20051;-63
2021/12/19 03:25:47;;;;;;;2.80;0.75;;;8.00;99.90;;;;;;5105332;27;20039;-63
2021/12/19 03:28:14;;;;;;;2.95;0.70;;;7.90;99.90;;;;;;5123388;27;20051;-63
2021/12/19 03:30:43;;;;;;;3.42;0.68;;;7.90;99.90;;;;;;5130727;27;20054;-63
2021/12/19 03:33:10;;;;;;;4.05;1.02;;;7.90;99.90;;;;;;5121702;27;20071;-63
2021/12/19 03:35:36;;;;;;;1.98;0.32;;;7.90;99.90;;;;;;5129424;27;20055;-63
2021/12/19 03:38:05;;;;;;;5.68;0.80;;;7.90;99.90;;;;;;5111109;27;20051;-63
2021/12/19 03:40:43;;;;;;;4.88;0.90;;;7.90;99.90;;;;;;5138918;27;20062;-63
2021/12/19 03:43:13;;;;;;;7.60;1.33;;;7.90;99.90;;;;;;5127430;27;20110;-64
2021/12/19 03:45:40;;;;;;;12.38;1.48;;;8.00;99.90;;;;;;5130332;27;20084;-64
2021/12/19 03:48:10;;;;;;;2.00;0.73;;;8.00;99.90;;;;;;5127762;27;20054;-64
2021/12/19 03:50:36;;;;;;;7.97;1.63;;;7.90;99.90;;;;;;5129804;27;20084;-64
2021/12/19 03:53:02;;;;;;;3.97;1.30;;;7.90;99.90;;;;;;5110446;27;20487;-64
2021/12/19 03:55:28;;;;;;;3.22;1.00;;;8.00;99.90;;;;;;5120750;27;20044;-65
2021/12/19 03:57:57;;;;;;;3.15;1.60;;;7.90;99.90;;;;;;5129128;27;20068;-64
2021/12/19 04:00:25;;;;;;;4.43;0.80;;;7.90;99.90;;;;;;5125419;27;20042;-64
2021/12/19 04:02:54;;;;;;;3.30;1.00;;;7.90;99.90;;;;;;5127696;27;20052;-64
2021/12/19 04:05:20;;;;;;;4.88;0.45;;;7.90;99.90;;;;;;5129958;27;20053;-65
2021/12/19 04:07:46;;;;;;;5.30;1.00;;;7.90;99.90;;;;;;5128292;27;20118;-64
2021/12/19 04:10:12;;;;;;;1.55;0.80;;;7.90;99.90;;;;;;5128685;27;20045;-64
2021/12/19 04:12:37;;;;;;;5.55;1.40;;;7.90;99.90;;;;;;5129125;27;20035;-64
2021/12/19 04:15:04;;;;;;;1.70;0.80;;;7.80;99.90;;;;;;5128081;27;20115;-64
2021/12/19 04:17:30;;;;;;;1.40;0.60;;;7.80;99.90;;;;;;5126820;27;20031;-65
2021/12/19 04:19:56;;;;;;;5.18;1.13;;;7.80;99.90;;;;;;5135011;27;20035;-64
2021/12/19 04:22:21;;;;;;;2.58;0.45;;;7.90;99.90;;;;;;5128434;27;20039;-65
2021/12/19 04:24:47;;;;;;;3.22;0.82;;;7.90;99.90;;;;;;5129699;27;20039;-64
2021/12/19 04:27:13;;;;;;;24.35;2.17;;;7.90;99.90;;;;;;5112975;27;20043;-64
2021/12/19 04:29:39;;;;;;;3.67;1.17;;;7.90;99.90;;;;;;5123717;27;20047;-64
2021/12/19 04:32:07;;;;;;;5.82;1.83;;;7.90;99.90;;;;;;5110018;27;20091;-64
2021/12/19 04:34:32;;;;;;;15.23;3.13;;;8.00;99.90;;;;;;5122826;27;20195;-65
2021/12/19 04:37:05;;;;;;;3.95;1.60;;;8.00;99.90;;;;;;5128057;27;20713;-64
2021/12/19 04:39:57;;;;;;;5.72;1.83;;;8.00;99.90;;;;;;5128750;27;20085;-64
2021/12/19 04:43:14;;;;;;;14.45;2.80;;;8.00;99.90;;;;;;5127622;27;20081;-64
2021/12/19 04:56:31;;;;;;;12.05;2.85;;;8.00;99.90;;;;;;5101666;27;20489;-64
2021/12/19 05:02:06;;;;;;;14.18;2.85;;;8.10;99.90;;;;;;5145052;27;20386;-64
2021/12/19 05:05:15;;;;;;;11.57;3.50;;;8.10;99.90;;;;;;5131866;27;20062;-64
2021/12/19 05:15:38;;;;;;;21.65;6.15;;;8.20;99.90;;;;;;5138926;27;20030;-64
2021/12/19 05:18:05;;;;;;;21.05;7.07;;;8.20;99.90;;;;;;5126142;27;20482;-64
2021/12/19 05:20:32;;;;;;;25.02;7.30;;;8.20;99.90;;;;;;5109435;27;20120;-65
2021/12/19 05:23:07;;;;;;;19.08;7.32;;;8.20;99.90;;;;;;5135960;27;20047;-65
2021/12/19 05:25:33;;;;;;;19.77;7.93;;;8.20;99.90;;;;;;5134947;27;20122;-63
2021/12/19 05:28:00;;;;;;;22.92;9.05;;;8.20;99.90;;;;;;5134987;27;20093;-63
2021/12/19 05:30:26;;;;;;;17.40;8.40;;;8.20;99.90;;;;;;5129719;27;20047;-63
2021/12/19 05:32:53;;;;;;;27.40;10.32;;;8.20;99.90;;;;;;5134937;27;20402;-63
2021/12/19 05:35:27;;;;;;;18.58;8.63;;;8.20;99.90;;;;;;5128440;27;20049;-63
2021/12/19 05:46:06;;;;;;;17.60;7.63;;;8.20;99.90;;;;;;5127941;27;20081;-63
2021/12/19 05:48:32;;;;;;;20.17;7.25;;;8.30;99.90;;;;;;5128287;27;20386;-63
2021/12/19 05:50:57;;;;;;;18.67;6.55;;;8.30;99.90;;;;;;5134424;27;20039;-63
2021/12/19 05:53:23;;;;;;;14.43;5.97;;;8.30;99.90;;;;;;5132463;27;20051;-63
2021/12/19 05:55:48;;;;;;;21.60;4.82;;;8.30;99.90;;;;;;5135221;27;20043;-63
2021/12/19 05:58:14;;;;;;;12.65;4.53;;;8.30;99.90;;;;;;5130053;27;20059;-63
2021/12/19 06:00:40;;;;;;;9.98;3.53;;;8.30;99.90;;;;;;5113473;27;20051;-63
2021/12/19 06:03:06;;;;;;;16.13;4.15;;;8.30;99.90;;;;;;5131008;27;20049;-63
2021/12/19 06:05:31;;;;;;;23.35;5.20;;;8.30;99.90;;;;;;5140965;27;20050;-63
2021/12/19 06:07:57;;;;;;;24.38;5.57;;;8.30;99.90;;;;;;5131218;27;20040;-63
2021/12/19 06:10:23;;;;;;;19.55;4.13;;;8.30;99.90;;;;;;5132508;27;20039;-62
2021/12/19 06:12:51;;;;;;;14.95;3.05;;;8.20;99.90;;;;;;5128477;27;20050;-63
2021/12/19 06:15:17;;;;;;;33.75;5.43;;;8.20;99.90;;;;;;5130969;27;20070;-63
2021/12/19 06:17:46;;;;;;;19.67;4.53;;;8.20;99.90;;;;;;5113821;27;20131;-63
2021/12/19 06:20:12;;;;;;;19.83;4.93;;;8.20;99.90;;;;;;5129385;27;20039;-63
2021/12/19 06:22:39;;;;;;;11.88;3.65;;;8.20;99.90;;;;;;5135473;27;20122;-63
2021/12/19 06:25:06;;;;;;;12.75;3.45;;;8.10;99.90;;;;;;5095232;27;20062;-63
2021/12/19 06:27:31;;;;;;;15.50;4.43;;;8.20;99.90;;;;;;5129763;27;20074;-63
2021/12/19 06:29:57;;;;;;;16.40;4.53;;;8.20;99.90;;;;;;5120870;27;20151;-63
2021/12/19 06:32:22;;;;;;;14.00;4.22;;;8.20;99.90;;;;;;5111315;27;20142;-63
2021/12/19 06:34:48;;;;;;;15.60;4.15;;;8.20;99.90;;;;;;5118366;27;20084;-63
2021/12/19 06:37:14;;;;;;;18.33;4.53;;;8.20;99.90;;;;;;5108876;28;20534;-63
2021/12/19 06:39:39;;;;;;;15.02;4.82;;;8.20;99.90;;;;;;5108975;27;20047;-63
2021/12/19 06:42:07;;;;;;;18.17;5.18;;;8.20;99.90;;;;;;5112117;27;20049;-63
2021/12/19 06:44:34;;;;;;;17.35;5.10;;;8.20;99.90;;;;;;5097685;28;20048;-63
2021/12/19 06:47:00;;;;;;;20.00;5.05;;;8.20;99.90;;;;;;5105637;28;20429;-63
2021/12/19 06:49:26;;;;;;;11.07;3.50;;;8.20;99.90;;;;;;5118712;27;20401;-63
2021/12/19 06:51:52;;;;;;;12.13;4.40;;;8.20;99.90;;;;;;5112635;27;20066;-63
2021/12/19 06:54:18;;;;;;;12.63;3.05;;;8.30;99.90;;;;;;5108285;27;20511;-63
2021/12/19 06:56:43;;;;;;;15.70;3.28;;;8.30;99.90;;;;;;5109858;28;20799;-63
2021/12/19 06:59:09;;;;;;;12.38;3.17;;;8.30;99.90;;;;;;5107472;27;20046;-63
2021/12/19 07:01:36;;;;;;;8.65;3.33;;;8.30;99.90;;;;;;5114240;27;20048;-63
2021/12/19 07:04:02;;;;;;;6.20;1.90;;;8.30;99.90;;;;;;5101760;28;20575;-63
2021/12/19 07:06:28;;;;;;;7.93;1.40;;;8.20;99.90;;;;;;5109744;27;20044;-62
2021/12/19 07:08:54;;;;;;;5.63;1.50;;;8.30;99.90;;;;;;5108124;28;20396;-63
2021/12/19 07:11:20;;;;;;;9.27;1.88;;;8.20;99.90;;;;;;5120239;27;20043;-63
2021/12/19 07:13:45;;;;;;;6.00;1.60;;;8.20;99.90;;;;;;5109039;28;20039;-62
2021/12/19 07:16:11;;;;;;;2.90;1.17;;;8.20;99.90;;;;;;5107859;27;20483;-63
2021/12/19 07:18:37;;;;;;;7.38;1.55;;;8.20;99.90;;;;;;5106987;28;20507;-62
2021/12/19 07:21:07;;;;;;;5.43;1.58;;;8.20;99.90;;;;;;5104023;27;20044;-63
2021/12/19 07:23:32;;;;;;;11.38;2.65;;;8.20;99.90;;;;;;5107476;27;20096;-63
2021/12/19 07:25:59;;;;;;;9.60;2.83;;;8.20;99.90;;;;;;5106494;27;20039;-64
2021/12/19 07:28:24;;;;;;;6.30;1.38;;;8.20;99.90;;;;;;5120260;27;20057;-63
2021/12/19 07:30:50;;;;;;;4.93;1.63;;;8.10;99.90;;;;;;5120348;27;20134;-63
2021/12/19 07:33:17;;;;;;;12.75;3.10;;;8.10;99.90;;;;;;5137256;27;20047;-63
2021/12/19 07:35:45;;;;;;;13.57;4.70;;;8.10;99.90;;;;;;5130634;27;20085;-64
2021/12/19 07:38:17;;;;;;;13.32;2.67;;;8.10;99.90;;;;;;5110475;27;20062;-64
2021/12/19 07:40:46;;;;;;;18.85;3.80;;;8.10;99.90;;;;;;5120613;27;20114;-65
2021/12/19 07:43:12;;;;;;;11.18;3.47;;;8.10;99.90;;;;;;5123352;27;20039;-64
2021/12/19 07:45:38;;;;;;;10.93;3.15;;;8.10;99.90;;;;;;5136311;27;20050;-64
2021/12/19 07:48:04;;;;;;;18.15;3.78;;;8.20;99.90;;;;;;5150801;27;20496;-64
2021/12/19 07:50:31;;;;;;;14.88;2.70;;;8.20;99.90;;;;;;5123710;27;20490;-64
2021/12/19 07:52:57;;;;;;;13.05;3.33;;;8.20;99.90;;;;;;5131429;27;20047;-64
2021/12/19 07:55:23;;;;;;;19.80;3.60;;;8.20;99.90;;;;;;5127926;27;20046;-64
2021/12/19 07:57:49;;;;;;;14.15;3.92;;;8.20;99.90;;;;;;5123728;27;20478;-65
2021/12/19 08:00:16;;;;;;;14.98;3.88;;;8.30;99.90;;;;;;5108427;27;20053;-64
2021/12/19 08:02:45;;;;;;;10.82;3.75;;;8.30;99.90;;;;;;5121415;27;20031;-64
2021/12/19 08:05:12;;;;;;;18.20;4.40;;;8.40;99.90;;;;;;5138586;27;20125;-64
2021/12/19 08:07:39;;;;;;;15.40;3.88;;;8.40;99.90;;;;;;5128382;27;20045;-64
2021/12/19 08:12:33;;;;;;;13.15;3.50;;;8.30;99.90;;;;;;5130984;27;20419;-64
2021/12/19 08:14:59;;;;;;;18.58;3.42;;;8.40;99.90;;;;;;5126373;27;20057;-64
2021/12/19 08:17:24;;;;;;;11.10;3.65;;;8.40;99.90;;;;;;5129417;27;20043;-64
2021/12/19 08:19:50;;;;;;;15.43;4.13;;;8.40;99.90;;;;;;5128918;27;20410;-65
2021/12/19 08:22:16;;;;;;;13.88;3.45;;;8.40;99.90;;;;;;5140488;27;20095;-64
2021/12/19 08:24:42;;;;;;;18.23;4.53;;;8.40;99.90;;;;;;5146048;27;20043;-64
2021/12/19 08:27:08;;;;;;;23.30;6.57;;;8.40;99.90;;;;;;5128240;27;20123;-64
2021/12/19 08:29:34;;;;;;;17.33;6.57;;;8.40;99.90;;;;;;5115452;27;20050;-64
2021/12/19 08:31:59;;;;;;;20.05;6.93;;;8.40;99.90;;;;;;5113793;27;20052;-64
2021/12/19 08:34:25;;;;;;;15.50;4.40;;;8.40;99.90;;;;;;5129799;27;20090;-64
2021/12/19 08:36:50;;;;;;;15.65;4.15;;;8.40;99.90;;;;;;5128603;27;20053;-64
2021/12/19 08:39:16;;;;;;;14.80;4.53;;;8.40;99.90;;;;;;5129056;27;20047;-64
2021/12/19 08:41:42;;;;;;;24.75;5.00;;;8.40;99.90;;;;;;5133932;27;20119;-64
2021/12/19 08:44:08;;;;;;;17.55;3.50;;;8.40;99.90;;;;;;5130421;27;20043;-64
2021/12/19 08:46:35;;;;;;;16.98;4.28;;;8.40;99.90;;;;;;5128515;27;20047;-64
2021/12/19 08:49:03;;;;;;;16.30;4.18;;;8.40;99.90;;;;;;5108562;28;20103;-65
2021/12/19 08:51:29;;;;;;;12.07;3.63;;;8.40;99.90;;;;;;5125252;27;20035;-64
2021/12/19 08:53:54;;;;;;;18.67;4.30;;;8.40;99.90;;;;;;5119353;27;20051;-64
2021/12/19 08:56:20;;;;;;;19.17;5.05;;;8.40;99.90;;;;;;5106618;27;20130;-64
2021/12/19 08:58:46;;;;;;;16.17;3.30;;;8.50;99.90;;;;;;5113351;27;20793;-64
2021/12/19 09:01:11;;;;;;;17.98;4.25;;;8.50;99.90;;;;;;5103311;27;20119;-64
2021/12/19 09:03:37;;;;;;;17.80;3.30;;;8.40;99.90;;;;;;5117327;27;20058;-64
2021/12/19 09:06:04;;;;;;;21.90;4.28;;;8.40;99.90;;;;;;5124130;27;20134;-64
2021/12/19 09:08:29;;;;;;;16.73;3.58;;;8.40;99.90;;;;;;5121363;27;20043;-64
2021/12/19 09:10:56;;;;;;;23.63;6.38;;;8.50;99.90;;;;;;5118345;28;20047;-64
2021/12/19 09:13:22;;;;;;;16.17;4.30;;;8.50;99.90;;;;;;5122031;27;20075;-65
2021/12/19 09:15:48;;;;;;;21.52;4.47;;;8.40;99.90;;;;;;5127420;27;20070;-65
2021/12/19 09:18:13;;;;;;;19.52;5.03;;;8.50;99.90;;;;;;5099318;28;20055;-65
2021/12/19 09:20:39;;;;;;;27.77;5.18;;;8.50;99.90;;;;;;5125609;27;20505;-64
2021/12/19 09:23:05;;;;;;;18.15;4.47;;;8.50;99.90;;;;;;5117764;27;20058;-64
2021/12/19 09:25:30;;;;;;;10.25;3.40;;;8.50;99.90;;;;;;5124581;27;20047;-64
2021/12/19 09:27:56;;;;;;;22.45;6.38;;;8.50;99.90;;;;;;5127171;27;20070;-64
2021/12/19 09:30:24;;;;;;;15.45;4.78;;;8.50;99.90;;;;;;5127383;28;20032;-64
2021/12/19 09:32:49;;;;;;;17.73;4.72;;;8.50;99.90;;;;;;5110806;28;20146;-64
2021/12/19 09:35:16;;;;;;;30.60;4.53;;;8.50;99.90;;;;;;5128881;27;20118;-64
2021/12/19 09:37:41;;;;;;;20.05;3.80;;;8.60;99.90;;;;;;5110772;27;20075;-64
2021/12/19 09:40:16;;;;;;;17.33;4.22;;;8.60;99.90;;;;;;5130870;27;20472;-64
2021/12/19 09:42:47;;;;;;;14.07;3.47;;;8.60;99.90;;;;;;5109532;27;20501;-64
2021/12/19 09:45:13;;;;;;;15.52;3.80;;;8.60;99.90;;;;;;5101743;27;20043;-64
2021/12/19 09:47:39;;;;;;;18.35;4.28;;;8.60;99.90;;;;;;5119179;27;20046;-64
2021/12/19 09:50:07;;;;;;;14.55;3.70;;;8.60;99.90;;;;;;5127460;27;20471;-64
2021/12/19 09:52:33;;;;;;;19.08;4.50;;;8.60;99.90;;;;;;5130806;27;20102;-64
2021/12/19 09:54:59;;;;;;;21.30;4.10;;;8.70;99.90;;;;;;5123573;27;20099;-64
2021/12/19 09:57:24;;;;;;;17.58;3.65;;;8.70;99.90;;;;;;5129839;27;20067;-64
2021/12/19 09:59:51;;;;;;;13.38;3.85;;;8.70;99.90;;;;;;5130718;27;20042;-65
2021/12/19 10:02:17;;;;;;;12.20;3.42;;;8.70;99.90;;;;;;5132883;27;20393;-64
2021/12/19 10:04:44;;;;;;;15.00;4.53;;;8.70;99.90;;;;;;5132442;27;20117;-64
2021/12/19 10:07:20;;;;;;;18.08;3.70;;;8.70;99.90;;;;;;5135228;27;20125;-64
2021/12/19 10:10:11;;;;;;;18.52;4.15;;;8.70;99.90;;;;;;5130661;27;20050;-65
2021/12/19 10:12:48;;;;;;;19.15;5.00;;;8.70;99.90;;;;;;5103299;27;20047;-65
2021/12/19 10:15:34;;;;;;;14.77;4.43;;;8.70;99.90;;;;;;5128103;27;20701;-65
2021/12/19 10:18:06;;;;;;;11.55;3.08;;;8.80;99.90;;;;;;5128043;27;20039;-65
2021/12/19 10:20:48;;;;;;;15.52;3.85;;;8.80;99.90;;;;;;5119144;27;20057;-65
2021/12/19 10:23:22;;;;;;;16.63;5.10;;;8.80;99.90;;;;;;5135696;27;20045;-65
2021/12/19 10:26:06;;;;;;;20.13;5.22;;;8.80;99.90;;;;;;5134851;27;20058;-65
2021/12/19 10:28:32;;;;;;;20.50;6.32;;;8.80;99.90;;;;;;5131331;27;20127;-65
2021/12/19 10:31:00;;;;;;;18.95;5.90;;;8.80;99.90;;;;;;5122213;27;20175;-65
2021/12/19 10:33:29;;;;;;;36.70;14.27;;;8.80;99.90;;;;;;5129918;27;20039;-65
2021/12/19 10:35:58;;;;;;;20.23;9.15;;;8.80;99.90;;;;;;5126439;27;20038;-65
2021/12/19 10:38:26;;;;;;;26.33;6.15;;;8.80;99.90;;;;;;5130365;27;20047;-65
2021/12/19 10:40:54;;;;;;;18.58;4.47;;;8.80;99.90;;;;;;5143548;27;20459;-65
2021/12/19 10:43:21;;;;;;;22.25;5.40;;;8.80;99.90;;;;;;5151949;27;20050;-65
2021/12/19 10:45:49;;;;;;;16.42;5.70;;;8.80;99.90;;;;;;5152400;27;20042;-65
2021/12/19 10:48:19;;;;;;;29.33;9.05;;;8.80;99.90;;;;;;5145918;27;20050;-65
2021/12/19 10:50:54;;;;;;;21.92;5.28;;;8.80;99.90;;;;;;5112108;27;20051;-64
2021/12/19 10:53:29;;;;;;;23.45;7.47;;;8.90;99.90;;;;;;5131590;27;20043;-64
2021/12/19 10:55:54;;;;;;;21.83;5.82;;;8.90;99.90;;;;;;5129187;27;20047;-64
2021/12/19 10:58:31;;;;;;;21.08;7.15;;;8.90;99.90;;;;;;5129865;27;20043;-65
2021/12/19 11:01:07;;;;;;;19.00;4.53;;;8.90;99.90;;;;;;5129187;27;20047;-64
2021/12/19 11:03:33;;;;;;;13.75;3.97;;;8.90;99.90;;;;;;5133997;27;20101;-64
2021/12/19 11:05:59;;;;;;;16.85;4.32;;;8.90;99.90;;;;;;5112626;27;20591;-64
2021/12/19 11:08:31;;;;;;;17.48;4.47;;;9.00;99.90;;;;;;5112836;27;20047;-64
2021/12/19 11:10:57;;;;;;;12.63;3.53;;;9.00;99.90;;;;;;5130870;27;20050;-65
2021/12/19 11:13:24;;;;;;;25.98;5.60;;;9.00;99.90;;;;;;5128741;27;20049;-65
2021/12/19 11:15:50;;;;;;;21.10;6.20;;;9.00;99.90;;;;;;5123102;27;20050;-65
2021/12/19 11:18:16;;;;;;;24.88;7.22;;;9.00;99.90;;;;;;5120857;27;20047;-65
2021/12/19 11:20:42;;;;;;;18.10;5.63;;;8.90;99.90;;;;;;5130446;27;20043;-65
2021/12/19 11:23:07;;;;;;;23.08;6.10;;;9.00;99.90;;;;;;5132076;27;20039;-65
2021/12/19 11:25:35;;;;;;;14.60;3.42;;;8.90;99.90;;;;;;5125212;27;20050;-65
2021/12/19 11:28:02;;;;;;;21.75;4.72;;;9.00;99.90;;;;;;5131603;27;20043;-65
2021/12/19 11:30:28;;;;;;;21.02;4.82;;;9.00;99.90;;;;;;5110298;27;20485;-65
2021/12/19 11:33:15;;;;;;;16.10;3.90;;;9.00;99.90;;;;;;5129165;27;20047;-65
2021/12/19 11:35:46;;;;;;;30.95;8.25;;;9.00;99.90;;;;;;5130668;27;20047;-65
2021/12/19 11:38:17;;;;;;;16.38;3.97;;;9.00;99.90;;;;;;5109368;27;20043;-65
2021/12/19 11:40:43;;;;;;;20.33;6.15;;;9.00;99.90;;;;;;5108970;27;20043;-64
2021/12/19 11:43:11;;;;;;;18.85;4.85;;;8.90;99.90;;;;;;5126402;27;20080;-64
2021/12/19 11:45:41;;;;;;;14.00;4.38;;;8.90;99.90;;;;;;5126327;27;20557;-65
2021/12/19 11:50:55;;;;;;;25.77;6.68;;;8.90;99.90;;;;;;5125164;27;20055;-65
2021/12/19 11:53:33;;;;;;;23.17;6.43;;;9.00;99.90;;;;;;5129965;27;20401;-65
2021/12/19 11:56:11;;;;;;;24.77;5.00;;;8.90;99.90;;;;;;5150917;27;20046;-65
2021/12/19 11:58:46;;;;;;;22.33;6.10;;;9.00;99.90;;;;;;5116816;27;20047;-65
2021/12/19 12:01:23;;;;;;;17.45;3.92;;;9.00;99.90;;;;;;5128695;27;20043;-65
2021/12/19 12:03:51;;;;;;;22.60;4.60;;;8.90;99.90;;;;;;5109199;27;20483;-65
2021/12/19 12:06:16;;;;;;;14.27;4.45;;;8.90;99.90;;;;;;5129005;27;20054;-65
2021/12/19 12:09:15;;;;;;;24.63;5.25;;;8.90;99.90;;;;;;5125230;27;20040;-64
2021/12/19 12:12:00;;;;;;;24.20;5.93;;;9.00;99.90;;;;;;5104004;27;20076;-64
2021/12/19 12:14:29;;;;;;;29.85;5.85;;;9.00;99.90;;;;;;5130040;27;20047;-64
2021/12/19 12:16:58;;;;;;;24.13;7.25;;;9.00;99.90;;;;;;5113183;27;20053;-64
2021/12/19 12:19:38;;;;;;;26.38;5.95;;;9.10;99.90;;;;;;5140938;27;20058;-64
2021/12/19 12:22:22;;;;;;;19.77;4.20;;;9.10;99.90;;;;;;5100546;27;20104;-65
2021/12/19 12:25:14;;;;;;;23.25;5.43;;;9.00;99.90;;;;;;5115921;27;20050;-70
2021/12/19 12:27:54;;;;;;;31.27;7.78;;;9.00;99.90;;;;;;5124970;27;20078;-64
2021/12/19 12:30:26;;;;;;;24.52;5.63;;;9.10;99.90;;;;;;5101893;27;20047;-65
2021/12/19 12:32:53;;;;;;;22.38;6.03;;;9.10;99.90;;;;;;5125650;27;20047;-65
2021/12/19 12:35:21;;;;;;;25.38;5.25;;;9.10;99.90;;;;;;5127023;27;20092;-65
2021/12/19 12:37:48;;;;;;;24.50;5.70;;;9.10;99.90;;;;;;5118691;27;20509;-64
2021/12/19 12:40:45;;;;;;;23.83;5.38;;;9.10;99.90;;;;;;5127580;27;20058;-65
2021/12/19 12:43:22;;;;;;;27.48;6.65;;;9.20;99.90;;;;;;5127799;27;20054;-65
2021/12/19 12:46:02;;;;;;;29.52;6.20;;;9.20;99.90;;;;;;5111249;27;20103;-65
2021/12/19 12:48:52;;;;;;;19.77;4.65;;;9.10;99.90;;;;;;5126806;27;20451;-64
2021/12/19 12:51:24;;;;;;;22.02;6.28;;;9.20;99.90;;;;;;5074055;28;20057;-64
2021/12/19 12:53:53;;;;;;;21.13;5.63;;;9.20;99.90;;;;;;5112014;27;20053;-64
2021/12/19 12:56:23;;;;;;;24.48;5.07;;;9.20;99.90;;;;;;5118051;27;20035;-64
2021/12/19 12:58:55;;;;;;;21.90;6.60;;;9.20;99.90;;;;;;5111138;28;20072;-65
2021/12/19 13:01:24;;;;;;;25.75;5.93;;;9.20;99.90;;;;;;5124526;28;20056;-65
2021/12/19 13:04:16;;;;;;;32.83;6.90;;;9.20;99.90;;;;;;5102620;28;20048;-64
2021/12/19 13:06:49;;;;;;;18.95;6.45;;;9.30;99.90;;;;;;5122369;27;20039;-65
2021/12/19 13:09:27;;;;;;;19.38;4.95;;;9.30;99.90;;;;;;5125505;27;20078;-66
2021/12/19 13:12:03;;;;;;;15.93;4.45;;;9.20;99.90;;;;;;5129113;27;20031;-65
2021/12/19 13:14:31;;;;;;;30.00;6.70;;;9.20;99.90;;;;;;5125321;27;20137;-65
2021/12/19 13:17:15;;;;;;;17.00;4.55;;;9.20;99.90;;;;;;5134955;27;20043;-65
2021/12/19 13:19:54;;;;;;;20.42;4.40;;;9.20;99.90;;;;;;5130062;27;20050;-64
2021/12/19 13:22:27;;;;;;;17.35;3.83;;;9.20;99.90;;;;;;5128426;27;20367;-64
2021/12/19 13:24:55;;;;;;;12.50;3.08;;;9.20;99.90;;;;;;5122391;27;20023;-65
2021/12/19 13:27:27;;;;;;;25.77;5.30;;;9.30;99.90;;;;;;5118148;27;20066;-64
2021/12/19 13:30:03;;;;;;;18.02;4.68;;;9.30;99.90;;;;;;5115560;27;20065;-64
2021/12/19 13:32:36;;;;;;;27.50;6.75;;;9.30;99.90;;;;;;5139430;27;20061;-64
2021/12/19 13:35:04;;;;;;;;;;;9.30;99.90;;;;;;5132432;27;20062;-64
2021/12/19 13:37:33;;;;;;;27.23;5.60;;;9.30;99.90;;;;;;5128987;27;19927;-64
2021/12/19 13:40:02;;;;;;;22.98;4.68;;;9.30;99.90;;;;;;5109946;27;20039;-64
2021/12/19 13:42:58;;;;;;;16.90;4.88;;;9.30;99.90;;;;;;5129657;27;20047;-63
2021/12/19 13:45:49;;;;;;;38.13;7.13;;;9.30;99.90;;;;;;5115220;27;20514;-64
2021/12/19 13:48:36;;;;;;;16.95;5.22;;;9.30;99.90;;;;;;5131632;27;20047;-64
2021/12/19 13:51:20;;;;;;;38.67;4.65;;;9.30;99.90;;;;;;5141066;27;20054;-64
2021/12/19 13:53:46;;;;;;;;;;;9.30;99.90;;;;;;5128967;27;20050;-64
2021/12/19 13:56:17;;;;;;;21.10;4.40;;;9.30;99.90;;;;;;5124796;27;20263;-64
2021/12/19 13:58:53;;;;;;;19.63;4.22;;;9.20;99.90;;;;;;5131744;27;20058;-66
2021/12/19 14:01:22;;;;;;;13.00;2.83;;;9.30;99.90;;;;;;5143073;27;20098;-64
2021/12/19 14:03:54;;;;;;;12.27;2.97;;;9.20;99.90;;;;;;5138310;27;20035;-64